Thunder radar more information blitzortung!


Radar de pluja more information rain snow radar


Visita la nostra xarxa de llocs de meteo:

Template documentation
and downloads

And another site



No particular awareness of the weather is required.    There are no Weather-warnings

Pagina Historial Weather Underground text

Diari Resum Abril 3, 2016 Unitats:  Mètric    Imperial   Tant
« Previous Dia
SegĂźent Dia »
Diari Setmana Mensual Anual Personalitzada
  Maxima: Minima: Media:
Temperatura: 17.8 °C 6.2 °C 13.2 °C
Punt de rosada: 10.1 °C 2.0 °C 7.1 °C
Humitat: 83 % 52 % 67 %
Wind Speed: 18.5 km/h 0.0 km/h 6.2 km/h
RĂ fegues de vent: 18.5 km/h - -
Vent:- - SSW
Pression baro: 1015.8 hPa 1010.7 hPa -
Precipitacions: 0.0 mm    
Historical Graphs
 
 
Dades de taula per Abril 3, 2016
Temps Temperatura Punt de rosada Pression baro Vent Wind Speed RĂ fegues de vent Humitat Rainfall Rate (Hourly)
00:00 10.1 °C 3.4 °C 1014.8 hPa SW 7.4 km/h 7.4 km/h 63 % 0.0 mm
00:05 7.2 °C 2.5 °C 1013.8 hPa SW 1.6 km/h 3.2 km/h 72 % 0.0 mm
00:15 7.0 °C 2.5 °C 1013.8 hPa SW 1.6 km/h 3.2 km/h 73 % 0.0 mm
00:25 6.9 °C 2.4 °C 1013.8 hPa WSW 3.2 km/h 3.2 km/h 73 % 0.0 mm
00:35 6.9 °C 2.6 °C 1013.8 hPa WSW 1.6 km/h 1.6 km/h 74 % 0.0 mm
00:45 6.9 °C 2.8 °C 1013.8 hPa Calm   1.6 km/h 75 % 0.0 mm
00:55 6.9 °C 2.6 °C 1013.8 hPa WSW 1.6 km/h 3.2 km/h 74 % 0.0 mm
01:05 7.0 °C 2.9 °C 1013.8 hPa Calm   1.6 km/h 75 % 0.0 mm
01:15 7.0 °C 2.9 °C 1013.8 hPa Calm     75 % 0.0 mm
01:25 7.1 °C 2.9 °C 1013.8 hPa Calm   3.2 km/h 75 % 0.0 mm
01:35 7.2 °C 3.1 °C 1013.8 hPa Calm     75 % 0.0 mm
01:45 7.0 °C 2.9 °C 1013.8 hPa WNW 1.6 km/h 3.2 km/h 75 % 0.0 mm
01:55 6.7 °C 2.4 °C 1013.8 hPa Calm   1.6 km/h 74 % 0.0 mm
02:05 6.6 °C 2.5 °C 1013.8 hPa Calm   1.6 km/h 75 % 0.0 mm
02:15 6.3 °C 2.0 °C 1012.8 hPa SE 1.6 km/h 3.2 km/h 74 % 0.0 mm
02:25 6.2 °C 2.1 °C 1013.8 hPa Calm   1.6 km/h 75 % 0.0 mm
02:35 6.2 °C 2.3 °C 1013.8 hPa Calm     76 % 0.0 mm
02:45 6.3 °C 2.6 °C 1013.8 hPa Calm     77 % 0.0 mm
02:55 6.5 °C 2.8 °C 1013.8 hPa Calm     77 % 0.0 mm
03:05 6.6 °C 2.8 °C 1013.8 hPa Calm   1.6 km/h 77 % 0.0 mm
03:15 6.7 °C 2.8 °C 1013.8 hPa Calm   3.2 km/h 76 % 0.0 mm
03:25 6.9 °C 3.2 °C 1014.8 hPa Calm   1.6 km/h 77 % 0.0 mm
03:35 7.1 °C 3.2 °C 1014.8 hPa NE 3.2 km/h 4.8 km/h 76 % 0.0 mm
03:45 7.5 °C 3.6 °C 1014.8 hPa NE 1.6 km/h 3.2 km/h 76 % 0.0 mm
03:55 7.8 °C 3.8 °C 1014.8 hPa NE 1.6 km/h 1.6 km/h 76 % 0.0 mm
04:05 8.3 °C 4.1 °C 1014.8 hPa Calm   1.6 km/h 75 % 0.0 mm
04:15 8.5 °C 4.1 °C 1014.8 hPa SSE 1.6 km/h 4.8 km/h 74 % 0.0 mm
04:25 8.5 °C 3.9 °C 1014.8 hPa SE 1.6 km/h 4.8 km/h 73 % 0.0 mm
04:35 8.7 °C 4.1 °C 1014.8 hPa ESE 4.8 km/h 4.8 km/h 73 % 0.0 mm
04:45 9.0 °C 4.4 °C 1014.8 hPa ESE 3.2 km/h 4.8 km/h 73 % 0.0 mm
04:55 9.3 °C 4.5 °C 1015.8 hPa SE 3.2 km/h 4.8 km/h 72 % 0.0 mm
05:05 9.4 °C 4.6 °C 1015.8 hPa ESE 3.2 km/h 4.8 km/h 72 % 0.0 mm
05:15 10.0 °C 5.2 °C 1014.8 hPa Calm   1.6 km/h 72 % 0.0 mm
05:25 11.3 °C 6.4 °C 1014.8 hPa Calm   1.6 km/h 72 % 0.0 mm
05:35 11.7 °C 6.6 °C 1014.8 hPa ENE 1.6 km/h 1.6 km/h 71 % 0.0 mm
10:44 12.4 °C 7.3 °C 1015.8 hPa East 3.9 km/h   71 % 0.0 mm
10:49 13.0 °C 7.9 °C 1015.8 hPa WSW 3.9 km/h 3.9 km/h 71 % 0.0 mm
10:54 13.1 °C 8.2 °C 1015.8 hPa WSW 4.7 km/h 4.7 km/h 72 % 0.0 mm
10:59 13.4 °C 8.4 °C 1015.8 hPa WSW 4.2 km/h 4.2 km/h 72 % 0.0 mm
11:04 14.0 °C 9.1 °C 1015.8 hPa SW 8.7 km/h 8.7 km/h 72 % 0.0 mm
11:09 13.9 °C 8.7 °C 1015.8 hPa WSW 9.3 km/h 9.3 km/h 71 % 0.0 mm
11:19 14.5 °C 9.3 °C 1015.8 hPa SSW 9.7 km/h 9.7 km/h 71 % 0.0 mm
11:24 14.3 °C 8.9 °C 1015.8 hPa SW 9.7 km/h 9.7 km/h 70 % 0.0 mm
11:29 14.5 °C 9.1 °C 1015.8 hPa West 6.9 km/h 6.9 km/h 70 % 0.0 mm
11:34 14.6 °C 9.0 °C 1014.8 hPa West 9.7 km/h 9.7 km/h 69 % 0.0 mm
11:39 14.9 °C 9.3 °C 1014.8 hPa WSW 7.4 km/h 7.4 km/h 69 % 0.0 mm
11:44 15.1 °C 9.4 °C 1014.8 hPa WSW 7.9 km/h 7.9 km/h 69 % 0.0 mm
11:54 15.4 °C 9.3 °C 1014.8 hPa SW 9.3 km/h 9.3 km/h 67 % 0.0 mm
11:59 15.2 °C 9.1 °C 1014.8 hPa WSW 12.2 km/h 12.2 km/h 67 % 0.0 mm
12:04 14.6 °C 8.6 °C 1014.8 hPa WSW 9.3 km/h 9.3 km/h 67 % 0.0 mm
12:09 15.1 °C 9.0 °C 1014.8 hPa SSW 9.3 km/h 9.3 km/h 67 % 0.0 mm
12:14 15.8 °C 9.7 °C 1014.8 hPa East 5.6 km/h 5.6 km/h 67 % 0.0 mm
12:19 16.2 °C 9.8 °C 1014.8 hPa WSW 9.5 km/h 9.5 km/h 66 % 0.0 mm
12:24 16.3 °C 9.5 °C 1014.8 hPa SSW 7.4 km/h 7.4 km/h 64 % 0.0 mm
12:29 16.8 °C 9.5 °C 1014.8 hPa WSW 9.3 km/h 9.3 km/h 62 % 0.0 mm
12:34 17.4 °C 10.1 °C 1014.8 hPa NE 5.6 km/h 5.6 km/h 62 % 0.0 mm
12:39 17.6 °C 9.7 °C 1014.8 hPa WNW 11.1 km/h 11.1 km/h 60 % 0.0 mm
12:44 17.6 °C 9.7 °C 1014.8 hPa West 9.5 km/h 9.5 km/h 60 % 0.0 mm
12:49 17.4 °C 9.3 °C 1014.8 hPa SW 9.3 km/h 9.3 km/h 59 % 0.0 mm
12:54 17.1 °C 8.8 °C 1014.8 hPa WSW 9.3 km/h 9.3 km/h 58 % 0.0 mm
12:59 17.1 °C 8.5 °C 1014.8 hPa ESE 13.0 km/h 13.0 km/h 57 % 0.0 mm
13:04 16.9 °C 8.3 °C 1013.8 hPa SSW 18.3 km/h 18.3 km/h 57 % 0.0 mm
13:09 17.1 °C 8.2 °C 1013.8 hPa WNW 5.6 km/h 5.6 km/h 56 % 0.0 mm
13:14 17.2 °C 8.6 °C 1013.8 hPa WSW 9.3 km/h 9.3 km/h 57 % 0.0 mm
13:19 17.6 °C 8.7 °C 1013.8 hPa West 14.8 km/h 14.8 km/h 56 % 0.0 mm
13:24 17.8 °C 8.9 °C 1013.8 hPa SSW 12.2 km/h 12.2 km/h 56 % 0.0 mm
13:29 17.8 °C 8.6 °C 1013.8 hPa SSW 16.7 km/h 16.7 km/h 55 % 0.0 mm
13:34 17.1 °C 7.7 °C 1013.8 hPa SW 11.1 km/h 11.1 km/h 54 % 0.0 mm
13:39 17.4 °C 8.3 °C 1013.8 hPa SW 7.4 km/h 7.4 km/h 55 % 0.0 mm
13:44 17.8 °C 8.6 °C 1013.8 hPa SSW 5.6 km/h 6.1 km/h 55 % 0.0 mm
13:49 17.8 °C 8.4 °C 1013.8 hPa SSW 13.7 km/h 13.7 km/h 54 % 0.0 mm
14:04 17.5 °C 7.8 °C 1013.8 hPa SW 11.1 km/h 11.1 km/h 53 % 0.0 mm
14:09 17.6 °C 7.9 °C 1013.8 hPa SSW 13.0 km/h 13.0 km/h 53 % 0.0 mm
14:14 17.3 °C 7.6 °C 1013.8 hPa SSW 13.0 km/h 13.0 km/h 53 % 0.0 mm
14:19 17.2 °C 7.3 °C 1013.8 hPa WSW 16.7 km/h 16.7 km/h 52 % 0.0 mm
14:24 17.7 °C 8.0 °C 1013.8 hPa SSW 7.4 km/h 7.4 km/h 53 % 0.0 mm
14:29 17.4 °C 7.7 °C 1013.8 hPa WSW 14.8 km/h 14.8 km/h 53 % 0.0 mm
14:34 16.8 °C 7.4 °C 1013.8 hPa SW 9.3 km/h 9.3 km/h 54 % 0.0 mm
14:39 17.4 °C 8.0 °C 1013.8 hPa WSW 13.0 km/h 13.0 km/h 54 % 0.0 mm
14:44 17.3 °C 7.6 °C 1013.8 hPa SW 9.3 km/h 9.3 km/h 53 % 0.0 mm
14:49 17.2 °C 7.8 °C 1013.8 hPa WSW 11.1 km/h 11.1 km/h 54 % 0.0 mm
14:54 17.1 °C 7.7 °C 1013.8 hPa West 7.4 km/h 7.4 km/h 54 % 0.0 mm
15:04 17.0 °C 7.9 °C 1013.8 hPa SW 9.0 km/h 9.0 km/h 55 % 0.0 mm
15:09 16.8 °C 7.7 °C 1013.8 hPa SSW 16.7 km/h 16.7 km/h 55 % 0.0 mm
15:14 16.8 °C 7.4 °C 1013.8 hPa WSW 16.7 km/h 16.7 km/h 54 % 0.0 mm
15:19 17.3 °C 7.9 °C 1013.8 hPa South 5.6 km/h 5.6 km/h 54 % 0.0 mm
15:29 16.8 °C 7.7 °C 1013.8 hPa SSW 11.1 km/h 11.1 km/h 55 % 0.0 mm
15:34 16.6 °C 7.8 °C 1013.8 hPa WSW 9.3 km/h 9.3 km/h 56 % 0.0 mm
15:39 16.9 °C 8.1 °C 1013.8 hPa WSW 5.6 km/h 5.6 km/h 56 % 0.0 mm
15:44 16.9 °C 8.1 °C 1013.8 hPa WSW 4.2 km/h 4.7 km/h 56 % 0.0 mm
15:49 16.8 °C 7.9 °C 1013.8 hPa SSW 11.1 km/h 11.1 km/h 56 % 0.0 mm
15:54 16.8 °C 7.9 °C 1013.8 hPa WSW 18.5 km/h 18.5 km/h 56 % 0.0 mm
15:59 16.9 °C 8.1 °C 1013.8 hPa SW 7.4 km/h 7.4 km/h 56 % 0.0 mm
16:04 16.8 °C 7.9 °C 1013.8 hPa SSW 14.8 km/h 14.8 km/h 56 % 0.0 mm
16:09 16.6 °C 7.8 °C 1013.8 hPa SSW 7.4 km/h 7.4 km/h 56 % 0.0 mm
16:14 16.6 °C 7.8 °C 1013.8 hPa SSW 9.3 km/h 9.3 km/h 56 % 0.0 mm
16:19 16.5 °C 7.7 °C 1012.8 hPa SSW 11.9 km/h 11.9 km/h 56 % 0.0 mm
16:24 16.1 °C 7.3 °C 1012.8 hPa SW 14.8 km/h 14.8 km/h 56 % 0.0 mm
16:29 16.2 °C 7.7 °C 1012.8 hPa SW 5.6 km/h 5.6 km/h 57 % 0.0 mm
16:39 15.8 °C 7.1 °C 1013.8 hPa WSW 16.7 km/h 16.7 km/h 56 % 0.0 mm
16:44 15.9 °C 7.4 °C 1013.8 hPa SW 15.1 km/h 15.1 km/h 57 % 0.0 mm
16:49 16.5 °C 7.9 °C 1012.8 hPa WSW 9.3 km/h 9.3 km/h 57 % 0.0 mm
16:54 16.6 °C 7.8 °C 1012.8 hPa WSW 16.1 km/h 16.1 km/h 56 % 0.0 mm
16:59 16.0 °C 7.5 °C 1012.8 hPa SW 14.8 km/h 14.8 km/h 57 % 0.0 mm
17:04 15.9 °C 7.7 °C 1011.7 hPa SW 13.0 km/h 13.0 km/h 58 % 0.0 mm
17:09 15.7 °C 7.4 °C 1011.7 hPa SSW 14.8 km/h 14.8 km/h 58 % 0.0 mm
17:19 15.3 °C 7.6 °C 1012.8 hPa SSW 11.1 km/h 11.1 km/h 60 % 0.0 mm
17:24 15.4 °C 7.9 °C 1012.8 hPa SW 10.3 km/h 10.3 km/h 61 % 0.0 mm
17:29 15.5 °C 8.0 °C 1012.8 hPa SW 13.0 km/h 13.0 km/h 61 % 0.0 mm
17:34 15.2 °C 7.9 °C 1012.8 hPa SSE 9.3 km/h 9.3 km/h 62 % 0.0 mm
17:39 15.2 °C 8.2 °C 1012.8 hPa SW 9.3 km/h 9.3 km/h 63 % 0.0 mm
17:44 15.3 °C 8.3 °C 1012.8 hPa SSW 10.0 km/h 10.0 km/h 63 % 0.0 mm
17:50 15.0 °C 8.2 °C 1012.8 hPa WSW 11.1 km/h 11.1 km/h 64 % 0.0 mm
17:55 15.0 °C 8.4 °C 1012.8 hPa WSW 14.8 km/h 14.8 km/h 65 % 0.0 mm
18:00 15.0 °C 8.4 °C 1012.8 hPa SW 9.3 km/h 9.3 km/h 65 % 0.0 mm
18:05 15.0 °C 8.4 °C 1012.8 hPa SW 11.1 km/h 11.1 km/h 65 % 0.0 mm
18:10 14.9 °C 8.4 °C 1012.8 hPa WSW 7.4 km/h 7.4 km/h 65 % 0.0 mm
18:15 14.8 °C 8.3 °C 1012.8 hPa WSW 11.9 km/h 11.9 km/h 65 % 0.0 mm
18:20 14.8 °C 8.1 °C 1011.7 hPa SW 9.3 km/h 9.3 km/h 64 % 0.0 mm
18:25 14.9 °C 8.2 °C 1011.7 hPa SW 4.8 km/h 11.3 km/h 64 % 0.0 mm
18:30 14.7 °C 8.2 °C 1011.7 hPa SW 14.8 km/h 14.8 km/h 65 % 0.0 mm
18:35 14.6 °C 8.1 °C 1011.7 hPa WSW 13.0 km/h 13.0 km/h 65 % 0.0 mm
18:40 14.7 °C 8.2 °C 1011.7 hPa SSW 7.4 km/h 7.4 km/h 65 % 0.0 mm
18:45 14.9 °C 8.4 °C 1011.7 hPa SW 9.3 km/h 9.3 km/h 65 % 0.0 mm
18:50 14.7 °C 7.9 °C 1011.7 hPa WSW 5.8 km/h 7.6 km/h 64 % 0.0 mm
18:55 14.6 °C 7.9 °C 1011.7 hPa SSW 11.1 km/h 11.1 km/h 64 % 0.0 mm
19:00 14.5 °C 7.8 °C 1011.7 hPa SW 11.1 km/h 11.1 km/h 64 % 0.0 mm
19:05 14.7 °C 7.9 °C 1011.7 hPa SW 9.3 km/h 9.3 km/h 64 % 0.0 mm
19:10 14.4 °C 7.7 °C 1011.7 hPa SSW 11.4 km/h 11.4 km/h 64 % 0.0 mm
19:15 11.8 °C 7.9 °C 1012.8 hPa NE 1.6 km/h 3.2 km/h 77 % 0.0 mm
19:20 14.2 °C 7.7 °C 1011.7 hPa SW 16.7 km/h 16.7 km/h 65 % 0.0 mm
19:25 14.1 °C 7.6 °C 1011.7 hPa SW 9.3 km/h 9.5 km/h 65 % 0.0 mm
19:30 14.1 °C 7.6 °C 1011.7 hPa West 9.3 km/h 9.3 km/h 65 % 0.0 mm
19:35 14.0 °C 7.5 °C 1010.7 hPa SSW 11.1 km/h 11.1 km/h 65 % 0.0 mm
19:40 13.8 °C 7.6 °C 1010.7 hPa SW 13.0 km/h 13.0 km/h 66 % 0.0 mm
19:45 13.6 °C 7.4 °C 1010.7 hPa SSW 9.3 km/h 9.3 km/h 66 % 0.0 mm
19:50 13.5 °C 7.5 °C 1011.7 hPa SSW 7.4 km/h 7.4 km/h 67 % 0.0 mm
19:55 13.3 °C 7.3 °C 1011.7 hPa South 9.3 km/h 9.3 km/h 67 % 0.0 mm
20:00 13.2 °C 7.2 °C 1011.7 hPa SSW 5.6 km/h 5.6 km/h 67 % 0.0 mm
20:05 13.1 °C 7.3 °C 1011.7 hPa SSW 7.4 km/h 7.4 km/h 68 % 0.0 mm
20:10 13.0 °C 7.2 °C 1011.7 hPa SW 5.6 km/h 5.6 km/h 68 % 0.0 mm
20:15 12.9 °C 7.1 °C 1011.7 hPa SW 5.0 km/h 5.0 km/h 68 % 0.0 mm
20:20 12.8 °C 7.1 °C 1011.7 hPa WSW 7.4 km/h 7.4 km/h 68 % 0.0 mm
20:25 12.7 °C 6.9 °C 1011.7 hPa SW 3.2 km/h 6.4 km/h 68 % 0.0 mm
20:30 12.5 °C 6.9 °C 1011.7 hPa SW 5.6 km/h 5.6 km/h 69 % 0.0 mm
20:35 12.4 °C 6.9 °C 1011.7 hPa SW 5.6 km/h 5.6 km/h 69 % 0.0 mm
20:40 12.4 °C 6.9 °C 1011.7 hPa WSW 5.6 km/h 5.6 km/h 69 % 0.0 mm
20:45 12.3 °C 6.8 °C 1011.7 hPa SW 3.7 km/h 3.7 km/h 69 % 0.0 mm
20:50 12.2 °C 6.9 °C 1011.7 hPa SW 2.6 km/h 2.6 km/h 70 % 0.0 mm
20:55 12.1 °C 6.8 °C 1011.7 hPa SW 3.7 km/h 3.7 km/h 70 % 0.0 mm
21:00 12.1 °C 6.8 °C 1011.7 hPa WSW 1.9 km/h 1.9 km/h 70 % 0.0 mm
21:05 12.0 °C 6.7 °C 1012.8 hPa SW 3.7 km/h 3.7 km/h 70 % 0.0 mm
21:10 12.0 °C 6.7 °C 1012.8 hPa WSW 2.6 km/h 2.6 km/h 70 % 0.0 mm
21:15 11.9 °C 6.8 °C 1012.8 hPa WSW 1.9 km/h 2.3 km/h 71 % 0.0 mm
21:20 12.0 °C 6.9 °C 1012.8 hPa SW 5.6 km/h 5.6 km/h 71 % 0.0 mm
21:25 12.1 °C 7.2 °C 1012.8 hPa SW 3.7 km/h 3.7 km/h 72 % 0.0 mm
21:30 12.1 °C 7.2 °C 1012.8 hPa SW 1.9 km/h 1.9 km/h 72 % 0.0 mm
21:35 12.1 °C 7.4 °C 1013.8 hPa Calm     73 % 0.0 mm
21:40 12.0 °C 7.3 °C 1013.8 hPa Calm     73 % 0.0 mm
21:45 12.0 °C 7.3 °C 1013.8 hPa Calm     73 % 0.0 mm
21:50 11.9 °C 7.4 °C 1013.8 hPa Calm     74 % 0.0 mm
21:55 11.4 °C 8.3 °C 1013.8 hPa Calm     81 % 0.0 mm
22:00 11.7 °C 7.2 °C 1013.8 hPa SW 1.9 km/h   74 % 0.0 mm
22:05 11.7 °C 7.2 °C 1013.8 hPa Calm     74 % 0.0 mm
22:10 11.7 °C 7.2 °C 1013.8 hPa SW 1.9 km/h   74 % 0.0 mm
22:15 11.7 °C 7.4 °C 1013.8 hPa Calm     75 % 0.0 mm
22:20 11.7 °C 7.4 °C 1013.8 hPa Calm     75 % 0.0 mm
22:25 11.7 °C 7.4 °C 1013.8 hPa SW 2.3 km/h   75 % 0.0 mm
22:31 11.8 °C 7.5 °C 1013.8 hPa Calm     75 % 0.0 mm
22:35 11.1 °C 8.2 °C 1012.8 hPa Calm     82 % 0.0 mm
22:36 11.8 °C 7.7 °C 1013.8 hPa East 1.9 km/h 1.9 km/h 76 % 0.0 mm
22:41 11.9 °C 7.8 °C 1013.8 hPa Calm     76 % 0.0 mm
22:45 11.1 °C 8.3 °C 1013.8 hPa Calm   1.6 km/h 83 % 0.0 mm
22:46 11.9 °C 7.8 °C 1013.8 hPa Calm     76 % 0.0 mm
22:51 11.9 °C 7.8 °C 1013.8 hPa East 2.3 km/h   76 % 0.0 mm
22:55 10.9 °C 7.9 °C 1013.8 hPa Calm   1.6 km/h 82 % 0.0 mm
22:56 11.9 °C 7.8 °C 1013.8 hPa East 1.9 km/h 2.3 km/h 76 % 0.0 mm
23:01 12.0 °C 7.9 °C 1013.8 hPa East 3.7 km/h 3.7 km/h 76 % 0.0 mm
23:05 11.0 °C 8.2 °C 1013.8 hPa Calm     83 % 0.0 mm
23:06 12.0 °C 7.7 °C 1013.8 hPa WSW 2.6 km/h   75 % 0.0 mm
23:11 11.9 °C 7.6 °C 1013.8 hPa Calm     75 % 0.0 mm
23:15 10.9 °C 8.1 °C 1013.8 hPa Calm     83 % 0.0 mm
23:16 11.9 °C 7.6 °C 1013.8 hPa Calm     75 % 0.0 mm
23:21 11.9 °C 7.6 °C 1013.8 hPa SW 2.6 km/h   75 % 0.0 mm
23:25 10.9 °C 8.1 °C 1012.8 hPa Calm     83 % 0.0 mm
23:26 11.8 °C 7.7 °C 1013.8 hPa ESE 1.9 km/h 1.9 km/h 76 % 0.0 mm
23:31 11.8 °C 7.7 °C 1013.8 hPa ESE 1.9 km/h 1.9 km/h 76 % 0.0 mm
23:35 10.6 °C 7.7 °C 1012.8 hPa NNW 1.6 km/h 1.6 km/h 82 % 0.0 mm
23:36 11.8 °C 7.7 °C 1013.8 hPa Calm     76 % 0.0 mm
23:41 11.8 °C 7.7 °C 1013.8 hPa Calm     76 % 0.0 mm
23:45 10.5 °C 7.7 °C 1011.7 hPa Calm   1.6 km/h 83 % 0.0 mm
23:46 11.8 °C 7.7 °C 1013.8 hPa Calm     76 % 0.0 mm
23:51 11.8 °C 7.7 °C 1012.8 hPa ENE 1.9 km/h   76 % 0.0 mm
23:55 10.4 °C 7.4 °C 1011.7 hPa Calm   3.2 km/h 82 % 0.0 mm
23:56 11.7 °C 7.6 °C 1012.8 hPa Calm     76 % 0.0 mm
Meteo Sesrovires
Elogis d' Weather Underground - 3.5 mb

Guio original per  Jim McMurry - jmcmurry@mwt.net Adaptat per a la plantilla per  Wim van der Kuil - Leuven-Template.eu

Trobareu la nostra informacio del temps tambe a:

Weather Underground

AWEKAS